createdAt,value
2023-03-10T00:00:16.244Z,92792.25
2023-03-10T00:02:49.488Z,92787.72
2023-03-10T00:05:18.605Z,92789.28
2023-03-10T00:07:45.758Z,92781.81
2023-03-10T00:10:14.276Z,92784.56
2023-03-10T00:12:41.226Z,92786.94
2023-03-10T00:15:08.946Z,92777.06
2023-03-10T00:17:35.755Z,92772.75
2023-03-10T00:20:07.989Z,92772.75
2023-03-10T00:22:35.547Z,92769.41
2023-03-10T00:25:02.511Z,92772.16
2023-03-10T00:27:29.257Z,92765.84
2023-03-10T00:29:56.079Z,92763.09
2023-03-10T00:32:22.897Z,92760.75
2023-03-10T00:34:49.749Z,92764.69
2023-03-10T00:37:16.794Z,92762.69
2023-03-10T00:39:43.543Z,92754.06
2023-03-10T00:42:10.303Z,92747.00
2023-03-10T00:44:37.239Z,92744.44
2023-03-10T00:47:04.058Z,92737.94
2023-03-10T00:49:30.792Z,92734.19
2023-03-10T00:51:57.509Z,92733.03
2023-03-10T00:54:24.331Z,92728.91
2023-03-10T00:56:51.101Z,92722.19
2023-03-10T00:59:17.933Z,92720.25
2023-03-10T01:01:44.896Z,92717.69
2023-03-10T01:04:14.280Z,92708.63
2023-03-10T01:06:41.085Z,92709.03
2023-03-10T01:09:08.315Z,92700.19
2023-03-10T01:11:35.222Z,92690.34
2023-03-10T01:14:04.682Z,92686.00
2023-03-10T01:16:32.000Z,92675.38
2023-03-10T01:18:59.342Z,92678.53
2023-03-10T01:21:29.001Z,92668.72
2023-03-10T01:23:55.776Z,92657.69
2023-03-10T01:26:22.636Z,92663.00
2023-03-10T01:28:50.048Z,92655.34
2023-03-10T01:31:17.439Z,92656.13
2023-03-10T01:33:45.731Z,92649.63
2023-03-10T01:36:21.702Z,92646.09
2023-03-10T01:38:48.705Z,92641.97
2023-03-10T01:41:16.361Z,92634.50
2023-03-10T01:43:45.753Z,92634.69
2023-03-10T01:46:27.709Z,92632.53
2023-03-10T01:49:01.329Z,92617.38
2023-03-10T01:51:30.434Z,92599.91
2023-03-10T01:53:57.215Z,92602.84
2023-03-10T01:56:24.046Z,92595.38
2023-03-10T01:58:51.227Z,92592.63
2023-03-10T02:01:18.558Z,92591.66
2023-03-10T02:04:08.384Z,92588.28
2023-03-10T02:06:36.438Z,92582.59
2023-03-10T02:09:04.425Z,92578.47
2023-03-10T02:11:31.307Z,92565.91
2023-03-10T02:13:57.984Z,92561.38
2023-03-10T02:16:24.707Z,92571.00
2023-03-10T02:18:51.561Z,92561.75
2023-03-10T02:21:37.060Z,92565.31
2023-03-10T02:24:12.620Z,92557.06
2023-03-10T02:27:18.688Z,92560.81
2023-03-10T02:29:58.764Z,92555.50
2023-03-10T02:32:27.175Z,92562.97
2023-03-10T02:34:54.151Z,92562.59
2023-03-10T02:37:24.107Z,92558.28
2023-03-10T02:39:50.833Z,92550.03
2023-03-10T02:42:18.642Z,92545.50
2023-03-10T02:44:46.493Z,92543.53
2023-03-10T02:47:13.471Z,92527.41
2023-03-10T02:49:40.932Z,92523.47
2023-03-10T02:52:12.840Z,92513.09
2023-03-10T02:54:39.519Z,92511.91
2023-03-10T02:57:06.327Z,92503.28
2023-03-10T02:59:33.041Z,92502.13
2023-03-10T03:01:59.799Z,92499.16
2023-03-10T03:04:26.589Z,92498.75
2023-03-10T03:06:53.336Z,92491.50
2023-03-10T03:09:20.001Z,92485.22
2023-03-10T03:11:46.757Z,92485.63
2023-03-10T03:14:13.540Z,92487.38
2023-03-10T03:16:40.270Z,92482.06
2023-03-10T03:19:07.183Z,92479.53
2023-03-10T03:21:33.946Z,92471.06
2023-03-10T03:24:00.690Z,92460.06
2023-03-10T03:26:27.597Z,92467.13
2023-03-10T03:28:54.416Z,92444.94
2023-03-10T03:31:23.234Z,92455.53
2023-03-10T03:33:50.422Z,92426.88
2023-03-10T03:36:17.303Z,92432.19
2023-03-10T03:38:44.078Z,92438.50
2023-03-10T03:41:10.874Z,92436.13
2023-03-10T03:43:37.704Z,92425.53
2023-03-10T03:46:04.944Z,92422.38
2023-03-10T03:48:31.817Z,92418.88
2023-03-10T03:50:58.579Z,92425.91
2023-03-10T03:53:25.357Z,92422.78
2023-03-10T03:55:52.156Z,92424.56
2023-03-10T03:58:19.342Z,92418.06
2023-03-10T04:00:46.258Z,92420.81
2023-03-10T04:03:13.050Z,92419.25
2023-03-10T04:05:40.236Z,92410.59
2023-03-10T04:08:07.270Z,92400.78
2023-03-10T04:10:34.175Z,92391.38
2023-03-10T04:13:00.875Z,92393.75
2023-03-10T04:15:27.650Z,92394.53
2023-03-10T04:17:54.376Z,92393.34
2023-03-10T04:20:21.294Z,92389.59
2023-03-10T04:22:48.060Z,92386.88
2023-03-10T04:25:15.145Z,92386.28
2023-03-10T04:27:42.049Z,92382.16
2023-03-10T04:30:12.156Z,92378.66
2023-03-10T04:32:39.080Z,92380.00
2023-03-10T04:35:06.553Z,92380.41
2023-03-10T04:37:33.423Z,92380.22
2023-03-10T04:40:02.177Z,92368.25
2023-03-10T04:42:28.937Z,92367.84
2023-03-10T04:44:55.639Z,92368.47
2023-03-10T04:47:22.413Z,92373.72
2023-03-10T04:49:49.160Z,92375.50
2023-03-10T04:52:16.002Z,92361.19
2023-03-10T04:54:42.780Z,92364.16
2023-03-10T04:57:09.724Z,92354.91
2023-03-10T04:59:36.530Z,92356.09
2023-03-10T05:02:03.368Z,92354.50
2023-03-10T05:04:30.383Z,92348.84
2023-03-10T05:06:57.190Z,92352.38
2023-03-10T05:09:23.908Z,92340.41
2023-03-10T05:11:50.647Z,92352.97
2023-03-10T05:14:17.536Z,92347.66
2023-03-10T05:16:44.677Z,92332.56
2023-03-10T05:19:11.503Z,92338.03
2023-03-10T05:21:38.129Z,92352.97
2023-03-10T05:24:04.974Z,92347.06
2023-03-10T05:26:34.707Z,92348.06
2023-03-10T05:29:01.602Z,92342.75
2023-03-10T05:31:28.307Z,92341.56
2023-03-10T05:33:54.947Z,92335.31
2023-03-10T05:36:22.012Z,92339.41
2023-03-10T05:38:49.020Z,92335.31
2023-03-10T05:41:16.211Z,92329.81
2023-03-10T05:43:43.060Z,92336.47
2023-03-10T05:46:09.867Z,92322.75
2023-03-10T05:48:36.560Z,92321.78
2023-03-10T05:51:09.084Z,92315.50
2023-03-10T05:53:36.849Z,92310.75
2023-03-10T05:56:08.408Z,92313.66
2023-03-10T05:58:35.401Z,92304.66
2023-03-10T06:01:02.362Z,92308.44
2023-03-10T06:03:30.263Z,92309.00
2023-03-10T06:05:58.331Z,92304.31
2023-03-10T06:08:26.716Z,92292.53
2023-03-10T06:10:53.568Z,92299.53
2023-03-10T06:13:20.731Z,92293.19
2023-03-10T06:15:58.720Z,92289.00
2023-03-10T06:18:26.166Z,92292.06
2023-03-10T06:20:53.767Z,92272.06
2023-03-10T06:23:21.642Z,92290.66
2023-03-10T06:25:59.588Z,92284.66
2023-03-10T06:28:32.992Z,92284.34
2023-03-10T06:31:00.952Z,92280.94
2023-03-10T06:33:28.609Z,92283.34
2023-03-10T06:35:55.814Z,92274.59
2023-03-10T06:38:23.005Z,92276.56
2023-03-10T06:40:50.183Z,92261.09
2023-03-10T06:43:17.064Z,92265.63
2023-03-10T06:45:45.043Z,92274.06
2023-03-10T06:48:12.313Z,92250.56
2023-03-10T06:50:43.944Z,92265.13
2023-03-10T06:53:11.449Z,92261.25
2023-03-10T06:55:38.276Z,92263.28
2023-03-10T06:58:05.177Z,92266.28
2023-03-10T07:00:31.991Z,92269.75
2023-03-10T07:02:58.942Z,92270.63
2023-03-10T07:05:27.493Z,92271.66
2023-03-10T07:07:55.363Z,92280.97
2023-03-10T07:10:23.083Z,92263.53
2023-03-10T07:12:55.225Z,92249.25
2023-03-10T07:15:26.120Z,92251.13
2023-03-10T07:17:52.974Z,92248.34
2023-03-10T07:20:19.762Z,92258.03
2023-03-10T07:22:46.573Z,92267.66
2023-03-10T07:25:13.309Z,92262.16
2023-03-10T07:27:40.085Z,92262.88
2023-03-10T07:30:07.700Z,92259.38
2023-03-10T07:32:34.675Z,92258.19
2023-03-10T07:35:01.481Z,92243.91
2023-03-10T07:37:28.246Z,92265.13
2023-03-10T07:39:55.540Z,92263.22
2023-03-10T07:42:22.849Z,92260.53
2023-03-10T07:44:49.663Z,92253.84
2023-03-10T07:47:16.375Z,92245.56
2023-03-10T07:49:47.049Z,92246.91
2023-03-10T07:52:18.317Z,92239.44
2023-03-10T07:54:45.143Z,92223.56
2023-03-10T07:57:13.389Z,92237.03
2023-03-10T07:59:41.503Z,92222.06
2023-03-10T08:02:12.416Z,92232.03
2023-03-10T08:04:39.485Z,92241.94
2023-03-10T08:07:06.598Z,92239.69
2023-03-10T08:09:33.333Z,92231.94
2023-03-10T08:12:00.721Z,92239.34
2023-03-10T08:14:31.239Z,92237.84
2023-03-10T08:16:58.217Z,92234.81
2023-03-10T08:19:26.257Z,92209.78
2023-03-10T08:21:57.775Z,92219.31
2023-03-10T08:24:25.656Z,92215.59
2023-03-10T08:26:52.529Z,92209.25
2023-03-10T08:29:19.638Z,92210.66
2023-03-10T08:31:46.449Z,92207.41
2023-03-10T08:34:14.197Z,92208.13
2023-03-10T08:36:41.146Z,92197.13
2023-03-10T08:39:08.709Z,92191.88
2023-03-10T08:41:45.745Z,92197.72
2023-03-10T08:44:15.635Z,92198.47
2023-03-10T08:46:46.397Z,92194.22
2023-03-10T08:49:14.995Z,92191.69
2023-03-10T08:51:41.831Z,92184.72
2023-03-10T08:54:10.608Z,92182.06
2023-03-10T08:56:37.533Z,92188.34
2023-03-10T08:59:05.045Z,92185.97
2023-03-10T09:01:34.354Z,92178.44
2023-03-10T09:04:02.511Z,92182.06
2023-03-10T09:06:29.472Z,92187.84
2023-03-10T09:08:56.273Z,92187.00
2023-03-10T09:11:28.874Z,92181.09
2023-03-10T09:13:56.019Z,92182.22
2023-03-10T09:16:22.916Z,92177.38
2023-03-10T09:18:49.795Z,92174.34
2023-03-10T09:21:18.809Z,92173.13
2023-03-10T09:23:47.702Z,92165.25
2023-03-10T09:26:14.792Z,92162.53
2023-03-10T09:28:41.651Z,92162.19
2023-03-10T09:31:09.830Z,92172.50
2023-03-10T09:33:36.882Z,92168.41
2023-03-10T09:36:07.854Z,92160.13
2023-03-10T09:38:36.505Z,92166.25
2023-03-10T09:41:37.685Z,92169.75
2023-03-10T09:44:17.214Z,92163.47
2023-03-10T09:47:07.351Z,92159.69
2023-03-10T09:50:22.306Z,92156.22
2023-03-10T09:53:25.833Z,92159.56
2023-03-10T09:55:53.624Z,92149.66
2023-03-10T09:58:34.080Z,92142.84
2023-03-10T10:01:01.625Z,92147.09
2023-03-10T10:03:51.484Z,92144.00
2023-03-10T10:06:24.706Z,92142.47
2023-03-10T10:09:28.290Z,92145.47
2023-03-10T10:11:56.066Z,92137.91
2023-03-10T10:14:31.046Z,92139.16
2023-03-10T10:17:26.410Z,92137.66
2023-03-10T10:19:53.577Z,92139.41
2023-03-10T10:22:31.452Z,92129.00
2023-03-10T10:25:13.189Z,92133.19
2023-03-10T10:27:41.835Z,92122.28
2023-03-10T10:30:28.916Z,92117.38
2023-03-10T10:33:01.099Z,92126.66
2023-03-10T10:35:30.806Z,92113.97
2023-03-10T10:38:03.124Z,92117.34
2023-03-10T10:40:33.732Z,92115.72
2023-03-10T10:43:01.119Z,92104.97
2023-03-10T10:45:36.575Z,92105.94
2023-03-10T10:48:04.356Z,92102.28
2023-03-10T10:50:35.666Z,92102.75
2023-03-10T10:53:19.120Z,92086.75
2023-03-10T10:55:49.316Z,92096.78
2023-03-10T10:58:30.863Z,92100.81
2023-03-10T11:01:04.099Z,92101.47
2023-03-10T11:03:37.289Z,92100.66
2023-03-10T11:06:27.682Z,92095.88
2023-03-10T11:09:04.743Z,92103.78
2023-03-10T11:12:01.987Z,92102.50
2023-03-10T11:15:01.726Z,92103.19
2023-03-10T11:17:38.571Z,92103.25
2023-03-10T11:20:14.138Z,92096.34
2023-03-10T11:22:55.131Z,92094.81
2023-03-10T11:25:40.691Z,92091.75
2023-03-10T11:28:19.200Z,92087.41
2023-03-10T11:31:12.026Z,92084.84
2023-03-10T11:34:16.733Z,92083.31
2023-03-10T11:37:01.833Z,92083.47
2023-03-10T11:39:37.668Z,92085.91
2023-03-10T11:42:33.374Z,92085.28
2023-03-10T11:45:18.198Z,92085.75
2023-03-10T11:48:22.523Z,92084.09
2023-03-10T11:50:55.437Z,92081.47
2023-03-10T11:53:47.942Z,92078.00
2023-03-10T11:56:16.267Z,92073.06
2023-03-10T11:58:57.097Z,92060.78
2023-03-10T12:01:44.050Z,92054.97
2023-03-10T12:04:16.938Z,92049.09
2023-03-10T12:07:05.283Z,92046.94
2023-03-10T12:09:42.507Z,92044.25
2023-03-10T12:12:24.521Z,92033.44
2023-03-10T12:14:53.657Z,92041.53
2023-03-10T12:17:20.521Z,92028.03
2023-03-10T12:20:15.984Z,92013.97
2023-03-10T12:22:46.510Z,92010.03
2023-03-10T12:25:28.612Z,92017.81
2023-03-10T12:28:16.878Z,92022.19
2023-03-10T12:30:58.122Z,92019.09
2023-03-10T12:33:30.850Z,92032.44
2023-03-10T12:36:05.450Z,92028.59
2023-03-10T12:38:42.763Z,92018.91
2023-03-10T12:41:10.538Z,92017.69
2023-03-10T12:43:43.359Z,92022.28
2023-03-10T12:46:12.601Z,92015.34
2023-03-10T12:48:43.798Z,92014.66
2023-03-10T12:51:13.689Z,92016.66
2023-03-10T12:53:53.158Z,92016.22
2023-03-10T12:56:24.877Z,92015.06
2023-03-10T12:59:03.513Z,92014.47
2023-03-10T13:01:35.174Z,92005.00
2023-03-10T13:04:06.806Z,91996.50
2023-03-10T13:06:37.643Z,91997.47
2023-03-10T13:09:39.104Z,92003.19
2023-03-10T13:12:21.842Z,91996.63
2023-03-10T13:14:54.573Z,92003.72
2023-03-10T13:17:25.696Z,92011.63
2023-03-10T13:20:19.523Z,91997.59
2023-03-10T13:22:57.741Z,91997.34
2023-03-10T13:25:25.634Z,91984.66
2023-03-10T13:27:52.874Z,91990.16
2023-03-10T13:30:26.694Z,91983.97
2023-03-10T13:32:54.433Z,91989.53
2023-03-10T13:35:37.068Z,91981.38
2023-03-10T13:38:24.689Z,91981.19
2023-03-10T13:40:57.428Z,91976.03
2023-03-10T13:43:44.269Z,91972.78
2023-03-10T13:46:21.577Z,91975.47
2023-03-10T13:48:48.781Z,91982.06
2023-03-10T13:51:18.323Z,91973.66
2023-03-10T13:53:47.872Z,91969.59
2023-03-10T13:56:39.559Z,91971.13
2023-03-10T13:59:07.230Z,91972.38
2023-03-10T14:01:36.689Z,91981.78
2023-03-10T14:04:08.946Z,91985.25
2023-03-10T14:06:36.853Z,91984.78
2023-03-10T14:09:20.917Z,91995.38
2023-03-10T14:11:50.539Z,91977.69
2023-03-10T14:14:46.603Z,91979.34
2023-03-10T14:17:35.205Z,91988.38
2023-03-10T14:20:02.043Z,91988.19
2023-03-10T14:22:41.587Z,91982.66
2023-03-10T14:25:10.317Z,91970.63
2023-03-10T14:27:41.072Z,91978.69
2023-03-10T14:30:19.338Z,91965.31
2023-03-10T14:32:46.208Z,91964.03
2023-03-10T14:35:14.310Z,91966.75
2023-03-10T14:37:41.111Z,91973.28
2023-03-10T14:40:08.831Z,91970.88
2023-03-10T14:42:35.567Z,91974.84
2023-03-10T14:45:17.815Z,91970.81
2023-03-10T14:47:44.896Z,91969.72
2023-03-10T14:50:15.441Z,91977.28
2023-03-10T14:52:42.158Z,91970.19
2023-03-10T14:55:10.059Z,91980.97
2023-03-10T14:57:38.851Z,91989.09
2023-03-10T15:00:11.162Z,91988.22
2023-03-10T15:02:38.462Z,91982.47
2023-03-10T15:05:05.524Z,91987.94
2023-03-10T15:07:32.280Z,91993.78
2023-03-10T15:10:10.622Z,91989.56
2023-03-10T15:12:38.784Z,91991.69
2023-03-10T15:15:06.214Z,91995.25
2023-03-10T15:17:33.003Z,91983.00
2023-03-10T15:19:59.908Z,91980.81
2023-03-10T15:22:26.650Z,91981.88
2023-03-10T15:24:53.402Z,91996.91
2023-03-10T15:27:20.102Z,92003.25
2023-03-10T15:29:46.862Z,92018.22
2023-03-10T15:32:13.547Z,92032.00
2023-03-10T15:34:40.327Z,92041.75
2023-03-10T15:37:08.737Z,92060.47
2023-03-10T15:39:37.242Z,92062.09
2023-03-10T15:42:04.505Z,92076.81
2023-03-10T15:44:31.270Z,92102.19
2023-03-10T15:46:58.066Z,92076.94
2023-03-10T15:49:24.949Z,92066.09
2023-03-10T15:51:51.727Z,92073.38
2023-03-10T15:54:18.520Z,92075.38
2023-03-10T15:56:45.298Z,92063.06
2023-03-10T15:59:12.263Z,92049.91
2023-03-10T16:01:39.797Z,92047.84
2023-03-10T16:04:06.739Z,92049.94
2023-03-10T16:06:34.195Z,92065.16
2023-03-10T16:09:01.475Z,92071.63
2023-03-10T16:11:28.320Z,92068.03
2023-03-10T16:13:55.152Z,92077.72
2023-03-10T16:16:26.520Z,92073.81
2023-03-10T16:18:53.514Z,92076.81
2023-03-10T16:21:20.790Z,92078.78
2023-03-10T16:23:47.696Z,92083.53
2023-03-10T16:26:20.569Z,92078.31
2023-03-10T16:28:50.713Z,92079.44
2023-03-10T16:31:19.891Z,92074.78
2023-03-10T16:33:48.250Z,92082.81
2023-03-10T16:36:18.351Z,92090.19
2023-03-10T16:38:45.557Z,92089.91
2023-03-10T16:41:12.870Z,92089.47
2023-03-10T16:43:40.324Z,92092.59
2023-03-10T16:46:07.058Z,92098.03
2023-03-10T16:48:34.673Z,92099.00
2023-03-10T16:51:17.523Z,92105.88
2023-03-10T16:53:44.310Z,92103.28
2023-03-10T16:56:11.087Z,92106.34
2023-03-10T16:58:37.846Z,92106.09
2023-03-10T17:01:06.702Z,92101.41
2023-03-10T17:03:39.510Z,92099.59
2023-03-10T17:06:12.098Z,92102.50
2023-03-10T17:08:40.177Z,92106.69
2023-03-10T17:11:08.283Z,92111.84
2023-03-10T17:13:35.166Z,92122.50
2023-03-10T17:16:02.503Z,92133.66
2023-03-10T17:18:29.502Z,92152.84
2023-03-10T17:20:56.371Z,92161.63
2023-03-10T17:23:23.909Z,92170.72
2023-03-10T17:25:51.963Z,92185.25
2023-03-10T17:28:18.698Z,92195.63
2023-03-10T17:30:45.718Z,92181.09
2023-03-10T17:33:12.387Z,92182.91
2023-03-10T17:35:39.409Z,92193.03
2023-03-10T17:38:06.128Z,92199.75
2023-03-10T17:40:33.951Z,92207.28
2023-03-10T17:43:13.178Z,92219.22
2023-03-10T17:45:56.990Z,92216.06
2023-03-10T17:48:24.017Z,92218.16
2023-03-10T17:50:50.798Z,92209.88
2023-03-10T17:53:17.563Z,92211.91
2023-03-10T17:55:44.330Z,92220.47
2023-03-10T17:58:11.086Z,92211.91
2023-03-10T18:00:37.810Z,92207.22
2023-03-10T18:03:04.610Z,92213.19
2023-03-10T18:05:31.953Z,92222.25
2023-03-10T18:07:59.391Z,92227.38
2023-03-10T18:10:26.152Z,92236.41
2023-03-10T18:12:52.949Z,92239.22
2023-03-10T18:15:19.613Z,92248.03
2023-03-10T18:17:46.244Z,92253.47
2023-03-10T18:20:15.149Z,92264.00
2023-03-10T18:22:41.801Z,92263.97
2023-03-10T18:25:08.864Z,92249.72
2023-03-10T18:27:35.558Z,92239.31
2023-03-10T18:30:02.456Z,92238.25
2023-03-10T18:32:29.749Z,92229.22
2023-03-10T18:35:02.391Z,92227.13
2023-03-10T18:37:32.412Z,92228.03
2023-03-10T18:40:00.260Z,92221.75
2023-03-10T18:42:27.839Z,92215.84
2023-03-10T18:44:55.215Z,92202.06
2023-03-10T18:47:21.969Z,92202.00
2023-03-10T18:49:49.037Z,92217.13
2023-03-10T18:52:16.241Z,92208.03
2023-03-10T18:54:47.248Z,92208.31
2023-03-10T18:57:15.276Z,92201.88
2023-03-10T18:59:42.518Z,92205.66
2023-03-10T19:02:14.363Z,92198.97
2023-03-10T19:04:41.360Z,92194.09
2023-03-10T19:07:08.604Z,92185.06
2023-03-10T19:09:35.384Z,92186.91
2023-03-10T19:12:02.254Z,92176.03
2023-03-10T19:14:29.081Z,92187.97
2023-03-10T19:16:55.810Z,92190.13
2023-03-10T19:19:22.676Z,92205.16
2023-03-10T19:21:49.665Z,92201.47
2023-03-10T19:24:16.364Z,92216.44
2023-03-10T19:26:43.588Z,92227.66
2023-03-10T19:29:10.487Z,92230.19
2023-03-10T19:31:37.422Z,92240.91
2023-03-10T19:34:04.330Z,92245.53
2023-03-10T19:36:31.186Z,92240.56
2023-03-10T19:38:57.956Z,92244.88
2023-03-10T19:41:24.739Z,92234.97
2023-03-10T19:43:51.510Z,92229.56
2023-03-10T19:46:18.777Z,92231.84
2023-03-10T19:48:45.708Z,92239.06
2023-03-10T19:51:38.664Z,92211.91
2023-03-10T19:54:05.907Z,92229.81
2023-03-10T19:56:33.534Z,92225.84
2023-03-10T19:59:00.548Z,92224.28
2023-03-10T20:01:27.805Z,92233.16
2023-03-10T20:03:57.031Z,92235.88
2023-03-10T20:06:23.810Z,92233.28
2023-03-10T20:08:52.043Z,92252.31
2023-03-10T20:11:19.793Z,92253.72
2023-03-10T20:13:47.190Z,92272.00
2023-03-10T20:16:15.337Z,92260.88
2023-03-10T20:18:42.101Z,92255.75
2023-03-10T20:21:08.870Z,92245.06
2023-03-10T20:23:35.954Z,92238.94
2023-03-10T20:26:05.339Z,92240.97
2023-03-10T20:28:33.480Z,92223.13
2023-03-10T20:31:00.311Z,92199.72
2023-03-10T20:33:27.574Z,92203.28
2023-03-10T20:35:54.873Z,92186.28
2023-03-10T20:38:22.364Z,92188.78
2023-03-10T20:40:49.456Z,92190.00
2023-03-10T20:43:17.623Z,92193.66
2023-03-10T20:45:44.454Z,92202.34
2023-03-10T20:48:11.460Z,92201.22
2023-03-10T20:50:38.410Z,92208.69
2023-03-10T20:53:05.371Z,92210.63
2023-03-10T20:55:33.102Z,92210.00
2023-03-10T20:58:00.899Z,92218.56
2023-03-10T21:00:29.727Z,92224.28
2023-03-10T21:02:57.427Z,92233.13
2023-03-10T21:05:26.587Z,92240.72
2023-03-10T21:07:53.491Z,92240.53
2023-03-10T21:10:20.432Z,92238.13
2023-03-10T21:12:47.188Z,92240.38
2023-03-10T21:15:16.518Z,92245.59
2023-03-10T21:17:44.068Z,92232.56
2023-03-10T21:20:12.208Z,92232.44
2023-03-10T21:22:39.897Z,92234.25
2023-03-10T21:25:09.057Z,92232.16
2023-03-10T21:27:35.755Z,92230.16
2023-03-10T21:30:05.351Z,92230.25
2023-03-10T21:32:33.119Z,92234.00
2023-03-10T21:34:59.865Z,92224.19
2023-03-10T21:37:26.559Z,92225.97
2023-03-10T21:39:54.001Z,92234.59
2023-03-10T21:42:20.639Z,92242.50
2023-03-10T21:44:48.477Z,92229.09
2023-03-10T21:47:15.275Z,92225.72
2023-03-10T21:49:41.930Z,92232.84
2023-03-10T21:52:09.782Z,92247.25
2023-03-10T21:54:36.553Z,92252.31
2023-03-10T21:57:03.259Z,92252.97
2023-03-10T21:59:30.188Z,92241.56
2023-03-10T22:01:56.896Z,92254.06
2023-03-10T22:04:23.717Z,92257.38
2023-03-10T22:06:50.365Z,92262.78
2023-03-10T22:09:17.007Z,92251.06
2023-03-10T22:11:43.656Z,92257.69
2023-03-10T22:14:10.911Z,92261.69
2023-03-10T22:16:37.623Z,92276.66
2023-03-10T22:19:04.369Z,92273.66
2023-03-10T22:21:31.136Z,92271.72
2023-03-10T22:23:57.761Z,92277.56
2023-03-10T22:26:24.408Z,92276.53
2023-03-10T22:28:51.100Z,92282.59
2023-03-10T22:31:18.344Z,92285.09
2023-03-10T22:33:44.995Z,92296.88
2023-03-10T22:36:13.433Z,92296.91
2023-03-10T22:38:40.191Z,92292.75
2023-03-10T22:41:11.648Z,92291.19
2023-03-10T22:43:38.423Z,92262.81
2023-03-10T22:46:12.990Z,92264.22
2023-03-10T22:48:40.395Z,92274.06
2023-03-10T22:51:13.847Z,92275.09
2023-03-10T22:53:40.477Z,92265.22
2023-03-10T22:56:07.644Z,92259.13
2023-03-10T22:58:34.446Z,92258.13
2023-03-10T23:01:01.133Z,92258.16
2023-03-10T23:03:27.795Z,92235.41
2023-03-10T23:05:54.500Z,92238.25
2023-03-10T23:08:21.149Z,92242.59
2023-03-10T23:10:47.784Z,92225.56
2023-03-10T23:13:15.637Z,92253.97
2023-03-10T23:15:43.202Z,92252.13
2023-03-10T23:18:10.529Z,92246.41
2023-03-10T23:20:43.322Z,92248.13
2023-03-10T23:23:12.105Z,92243.38
2023-03-10T23:25:46.891Z,92243.78
2023-03-10T23:28:15.107Z,92258.84
2023-03-10T23:30:43.892Z,92252.94
2023-03-10T23:33:13.517Z,92255.25
2023-03-10T23:35:40.427Z,92250.16
2023-03-10T23:38:07.162Z,92243.84
2023-03-10T23:40:35.333Z,92248.25
2023-03-10T23:43:04.345Z,92226.94
2023-03-10T23:45:32.217Z,92258.09
2023-03-10T23:48:01.454Z,92259.25
2023-03-10T23:50:37.028Z,92251.50
2023-03-10T23:53:05.433Z,92246.72
2023-03-10T23:55:34.479Z,92259.94
2023-03-10T23:58:01.108Z,92254.41
